createdAt,value
2018-09-30T00:00:18.742Z,94.36
2018-09-30T00:03:21.958Z,94.18
2018-09-30T00:06:25.114Z,95.98
2018-09-30T00:09:28.314Z,96.10
2018-09-30T00:12:31.576Z,93.00
2018-09-30T00:15:35.114Z,93.13
2018-09-30T00:18:38.386Z,92.08
2018-09-30T00:21:41.785Z,94.37
2018-09-30T00:24:50.595Z,94.03
2018-09-30T00:27:53.838Z,94.26
2018-09-30T00:30:57.113Z,93.28
2018-09-30T00:34:06.277Z,92.14
2018-09-30T00:37:09.517Z,93.48
2018-09-30T00:40:12.731Z,93.60
2018-09-30T00:43:16.070Z,92.64
2018-09-30T00:46:19.325Z,92.18
2018-09-30T00:49:22.667Z,93.28
2018-09-30T00:52:25.905Z,93.06
2018-09-30T00:55:29.154Z,94.89
2018-09-30T00:58:32.464Z,94.95
2018-09-30T01:01:35.731Z,94.90
2018-09-30T01:04:38.938Z,93.72
2018-09-30T01:07:42.029Z,94.92
2018-09-30T01:10:45.335Z,93.88
2018-09-30T01:13:48.696Z,94.53
2018-09-30T01:16:51.914Z,94.80
2018-09-30T01:19:55.256Z,93.68
2018-09-30T01:22:58.461Z,93.40
2018-09-30T01:26:01.836Z,94.02
2018-09-30T01:29:05.118Z,96.37
2018-09-30T01:32:08.334Z,96.01
2018-09-30T01:35:11.494Z,91.28
2018-09-30T01:38:14.873Z,95.34
2018-09-30T01:41:17.965Z,94.94
2018-09-30T01:44:21.119Z,95.26
2018-09-30T01:47:24.466Z,93.99
2018-09-30T01:50:27.639Z,93.34
2018-09-30T01:53:30.831Z,94.24
2018-09-30T01:56:34.011Z,93.96
2018-09-30T01:59:37.218Z,93.23
2018-09-30T02:02:40.412Z,94.76
2018-09-30T02:05:43.608Z,95.40
2018-09-30T02:08:46.860Z,96.78
2018-09-30T02:11:50.130Z,97.86
2018-09-30T02:14:53.386Z,96.14
2018-09-30T02:17:56.742Z,96.82
2018-09-30T02:20:59.984Z,96.17
2018-09-30T02:24:03.174Z,96.13
2018-09-30T02:27:06.385Z,93.53
2018-09-30T02:30:09.603Z,94.21
2018-09-30T02:33:12.897Z,92.56
2018-09-30T02:36:17.094Z,94.79
2018-09-30T02:39:20.441Z,93.24
2018-09-30T02:42:23.671Z,98.67
2018-09-30T02:45:26.958Z,96.65
2018-09-30T02:48:30.179Z,97.26
2018-09-30T02:51:33.346Z,96.25
2018-09-30T02:54:36.583Z,97.15
2018-09-30T02:57:39.842Z,94.74
2018-09-30T03:00:43.033Z,92.69
2018-09-30T03:03:46.237Z,92.90
2018-09-30T03:06:54.964Z,94.54
2018-09-30T03:09:58.168Z,94.25
2018-09-30T03:13:03.204Z,94.94
2018-09-30T03:16:06.338Z,96.10
2018-09-30T03:19:09.627Z,94.04
2018-09-30T03:22:12.842Z,92.79
2018-09-30T03:25:16.107Z,93.98
2018-09-30T03:28:19.986Z,95.34
2018-09-30T03:31:24.174Z,96.00
2018-09-30T03:34:27.369Z,96.13
2018-09-30T03:37:30.578Z,96.44
2018-09-30T03:40:34.775Z,94.79
2018-09-30T03:43:37.956Z,96.47
2018-09-30T03:46:41.866Z,95.06
2018-09-30T03:49:45.094Z,94.53
2018-09-30T03:52:48.306Z,95.42
2018-09-30T03:55:51.601Z,98.16
2018-09-30T03:58:54.883Z,96.62
2018-09-30T04:01:58.185Z,96.61
2018-09-30T04:05:01.460Z,96.46
2018-09-30T04:08:04.688Z,95.93
2018-09-30T04:11:08.092Z,95.72
2018-09-30T04:14:11.346Z,96.50
2018-09-30T04:17:14.683Z,93.58
2018-09-30T04:20:17.894Z,94.31
2018-09-30T04:23:21.164Z,94.49
2018-09-30T04:26:24.397Z,92.30
2018-09-30T04:29:28.618Z,98.19
2018-09-30T04:32:31.876Z,99.67
2018-09-30T04:35:35.139Z,98.83
2018-09-30T04:38:38.263Z,92.59
2018-09-30T04:41:41.498Z,95.82
2018-09-30T04:44:45.506Z,96.63
2018-09-30T04:47:48.778Z,96.56
2018-09-30T04:50:52.074Z,94.75
2018-09-30T04:53:55.253Z,95.98
2018-09-30T04:56:58.496Z,95.45
2018-09-30T05:00:01.662Z,95.46
2018-09-30T05:03:05.121Z,94.98
2018-09-30T05:06:08.293Z,93.16
2018-09-30T05:09:11.466Z,94.74
2018-09-30T05:12:14.643Z,94.02
2018-09-30T05:15:17.915Z,96.74
2018-09-30T05:18:21.142Z,95.68
2018-09-30T05:21:24.442Z,95.22
2018-09-30T05:24:28.609Z,95.26
2018-09-30T05:27:31.814Z,96.60
2018-09-30T05:30:34.954Z,93.68
2018-09-30T05:33:38.153Z,95.77
2018-09-30T05:36:41.371Z,94.50
2018-09-30T05:39:44.563Z,95.28
2018-09-30T05:42:47.783Z,95.51
2018-09-30T05:45:51.183Z,97.86
2018-09-30T05:48:54.455Z,93.94
2018-09-30T05:51:57.670Z,95.63
2018-09-30T05:55:00.818Z,93.06
2018-09-30T05:58:04.173Z,94.54
2018-09-30T06:01:07.310Z,91.99
2018-09-30T06:04:10.763Z,97.23
2018-09-30T06:07:14.028Z,97.33
2018-09-30T06:10:17.195Z,90.67
2018-09-30T06:13:20.410Z,90.69
2018-09-30T06:16:23.673Z,86.38
2018-09-30T06:19:27.005Z,85.83
2018-09-30T06:22:31.319Z,84.14
2018-09-30T06:25:34.471Z,81.60
2018-09-30T06:28:37.744Z,79.94
2018-09-30T06:31:41.553Z,82.40
2018-09-30T06:34:44.696Z,79.89
2018-09-30T06:37:47.952Z,80.72
2018-09-30T06:40:51.154Z,79.72
2018-09-30T06:43:54.411Z,74.62
2018-09-30T06:46:57.727Z,74.87
2018-09-30T06:50:00.946Z,74.59
2018-09-30T06:53:04.181Z,76.68
2018-09-30T06:56:07.376Z,76.60
2018-09-30T06:59:10.771Z,75.52
2018-09-30T07:02:14.419Z,76.93
2018-09-30T07:05:18.231Z,81.28
2018-09-30T07:08:21.628Z,80.18
2018-09-30T07:11:34.760Z,79.38
2018-09-30T07:14:40.698Z,81.89
2018-09-30T07:17:46.589Z,82.35
2018-09-30T07:20:52.631Z,78.96
2018-09-30T07:28:01.119Z,78.25
2018-09-30T07:31:46.371Z,79.37
2018-09-30T07:35:02.145Z,80.88
2018-09-30T08:25:28.906Z,78.03
2018-09-30T08:28:47.521Z,79.16
2018-09-30T08:44:21.601Z,80.16
2018-09-30T08:48:15.816Z,77.15
2018-09-30T08:55:46.638Z,78.28
2018-09-30T08:59:00.311Z,79.31
2018-09-30T09:02:26.173Z,76.25
2018-09-30T09:05:33.906Z,77.30
2018-09-30T09:08:55.235Z,78.05
2018-09-30T09:12:05.535Z,78.09
2018-09-30T09:19:00.454Z,77.13
2018-09-30T09:22:09.912Z,76.24
2018-09-30T09:25:22.771Z,73.29
2018-09-30T09:28:33.101Z,74.07
2018-09-30T09:35:32.052Z,73.36
2018-09-30T09:48:52.718Z,74.77
2018-09-30T09:58:58.332Z,73.22
2018-09-30T10:02:39.444Z,73.35
2018-09-30T10:05:50.023Z,73.48
2018-09-30T10:09:06.181Z,70.12
2018-09-30T10:17:28.385Z,71.18
2018-09-30T10:24:03.294Z,67.70
2018-09-30T10:31:23.697Z,68.91
2018-09-30T10:35:40.152Z,66.13
2018-09-30T10:38:59.257Z,64.93
2018-09-30T10:42:07.304Z,64.37
2018-09-30T10:45:10.440Z,64.00
2018-09-30T10:48:13.639Z,63.48
2018-09-30T10:51:29.434Z,62.38
2018-09-30T10:55:27.264Z,62.03
2018-09-30T10:58:37.111Z,60.16
2018-09-30T11:01:53.020Z,59.18
2018-09-30T11:04:56.782Z,59.13
2018-09-30T11:08:00.854Z,56.84
2018-09-30T11:11:04.987Z,56.50
2018-09-30T11:14:09.596Z,57.62
2018-09-30T11:17:12.994Z,56.96
2018-09-30T11:20:16.466Z,56.94
2018-09-30T11:23:19.777Z,56.38
2018-09-30T11:26:24.045Z,57.34
2018-09-30T11:29:28.253Z,57.85
2018-09-30T11:32:31.498Z,56.95
2018-09-30T11:35:35.070Z,56.01
2018-09-30T11:38:38.387Z,55.28
2018-09-30T11:41:42.667Z,55.53
2018-09-30T11:44:45.824Z,56.76
2018-09-30T11:47:49.029Z,54.42
2018-09-30T11:50:52.247Z,56.33
2018-09-30T11:53:55.506Z,57.59
2018-09-30T11:56:58.869Z,55.55
2018-09-30T12:00:02.076Z,54.87
2018-09-30T12:03:05.549Z,55.45
2018-09-30T12:06:08.723Z,54.07
2018-09-30T12:09:12.025Z,56.66
2018-09-30T12:12:15.344Z,55.54
2018-09-30T12:15:18.469Z,55.19
2018-09-30T12:18:21.697Z,55.21
2018-09-30T12:21:24.895Z,56.57
2018-09-30T12:24:28.061Z,56.60
2018-09-30T12:27:31.201Z,57.25
2018-09-30T12:30:38.204Z,55.08
2018-09-30T12:37:26.365Z,53.88
2018-09-30T12:40:35.659Z,55.63
2018-09-30T13:29:40.539Z,52.86
2018-09-30T13:33:08.967Z,52.68
2018-09-30T13:36:18.608Z,53.58
2018-09-30T13:39:27.443Z,53.38
2018-09-30T13:42:36.479Z,50.55
2018-09-30T13:59:33.272Z,49.37
2018-09-30T14:02:56.889Z,49.41
2018-09-30T14:06:12.134Z,48.91
2018-09-30T14:09:21.381Z,50.52
2018-09-30T14:12:26.293Z,52.16
2018-09-30T14:16:01.735Z,50.13
2018-09-30T14:19:27.136Z,48.23
2018-09-30T14:22:48.467Z,46.97
2018-09-30T14:26:05.562Z,49.55
2018-09-30T14:57:59.502Z,48.03
2018-09-30T15:01:55.396Z,49.03
2018-09-30T15:05:14.418Z,45.90
2018-09-30T15:08:37.570Z,47.69
2018-09-30T15:12:13.637Z,47.80
2018-09-30T15:15:21.063Z,47.98
2018-09-30T15:19:09.214Z,48.00
2018-09-30T15:22:26.095Z,48.48
2018-09-30T15:25:47.548Z,48.07
2018-09-30T15:28:57.208Z,49.42
2018-09-30T15:32:33.577Z,50.04
2018-09-30T15:35:48.849Z,50.03
2018-09-30T15:38:58.056Z,49.81
2018-09-30T15:42:15.730Z,50.24
2018-09-30T15:49:50.512Z,49.79
2018-09-30T15:57:38.635Z,49.15
2018-09-30T16:00:51.026Z,50.35
2018-09-30T16:04:01.492Z,50.91
2018-09-30T16:07:08.690Z,50.61
2018-09-30T16:10:13.209Z,50.28
2018-09-30T18:22:01.374Z,75.19
2018-09-30T18:38:56.879Z,76.88
2018-09-30T19:00:26.636Z,78.11
2018-09-30T19:05:41.246Z,78.24
2018-09-30T19:14:22.343Z,78.63
2018-09-30T19:17:32.920Z,78.21
2018-09-30T19:20:44.038Z,79.07
2018-09-30T19:23:51.664Z,77.76
2018-09-30T19:26:56.956Z,78.74
2018-09-30T19:33:19.537Z,78.35
2018-09-30T19:36:28.586Z,78.35
2018-09-30T19:39:33.494Z,79.50
2018-09-30T19:42:37.527Z,80.62
2018-09-30T19:45:42.056Z,78.40
2018-09-30T19:48:46.797Z,80.96
2018-09-30T19:51:50.699Z,82.66
2018-09-30T19:54:55.172Z,80.61
2018-09-30T19:58:01.174Z,82.03
2018-09-30T20:01:05.689Z,80.98
2018-09-30T20:04:10.639Z,84.24
2018-09-30T20:07:16.752Z,81.97
2018-09-30T20:10:22.527Z,83.80
2018-09-30T20:13:27.684Z,83.63
2018-09-30T20:16:34.636Z,82.66
2018-09-30T20:19:44.751Z,83.52
2018-09-30T20:22:48.806Z,82.76
2018-09-30T20:25:56.922Z,84.64
2018-09-30T20:29:01.003Z,83.44
2018-09-30T20:32:05.789Z,82.99
2018-09-30T20:35:09.710Z,82.83
2018-09-30T20:38:17.014Z,84.96
2018-09-30T20:41:23.868Z,82.89
2018-09-30T20:44:28.646Z,82.00
2018-09-30T20:47:35.929Z,80.31
2018-09-30T20:50:42.372Z,80.87
2018-09-30T20:53:46.173Z,81.05
2018-09-30T20:56:50.406Z,83.79
2018-09-30T20:59:54.509Z,81.28
2018-09-30T21:02:58.689Z,81.66
2018-09-30T21:06:30.458Z,81.39
2018-09-30T21:09:35.878Z,80.40
2018-09-30T21:12:45.019Z,82.06
2018-09-30T21:15:49.632Z,78.99
2018-09-30T21:18:57.927Z,81.51
2018-09-30T21:22:02.066Z,81.57
2018-09-30T21:25:08.433Z,82.07
2018-09-30T21:28:13.764Z,81.58
2018-09-30T21:32:44.350Z,81.03
2018-09-30T21:35:49.623Z,83.51
2018-09-30T21:38:55.638Z,83.07
2018-09-30T21:42:02.335Z,82.53
2018-09-30T21:45:07.411Z,85.22
2018-09-30T21:48:12.425Z,83.53
2018-09-30T21:51:17.212Z,84.54
2018-09-30T21:54:21.531Z,85.83
2018-09-30T21:57:25.813Z,86.71
2018-09-30T22:00:41.244Z,81.62
2018-09-30T22:03:45.212Z,82.56
2018-09-30T22:06:53.618Z,83.91
2018-09-30T22:09:58.916Z,85.56
2018-09-30T22:13:03.804Z,87.03
2018-09-30T22:16:08.791Z,85.72
2018-09-30T22:19:14.697Z,84.20
2018-09-30T22:22:18.944Z,83.27
2018-09-30T22:25:25.601Z,83.26
2018-09-30T22:28:35.168Z,83.16
2018-09-30T22:31:39.406Z,82.92
2018-09-30T22:34:44.074Z,83.51
2018-09-30T22:37:49.434Z,83.93
2018-09-30T22:40:58.154Z,84.68
2018-09-30T22:44:02.312Z,85.76
2018-09-30T22:47:06.295Z,86.72
2018-09-30T22:50:11.323Z,83.82
2018-09-30T22:53:16.222Z,85.01
2018-09-30T22:56:20.904Z,86.68
2018-09-30T22:59:24.774Z,85.47
2018-09-30T23:02:29.772Z,84.80
2018-09-30T23:05:34.486Z,86.45
2018-09-30T23:08:39.664Z,85.93
2018-09-30T23:11:43.588Z,86.44
2018-09-30T23:14:48.166Z,86.56
2018-09-30T23:17:52.067Z,85.70
2018-09-30T23:20:56.064Z,87.21
2018-09-30T23:24:00.215Z,88.29
2018-09-30T23:27:04.855Z,88.97
2018-09-30T23:31:33.265Z,87.96
2018-09-30T23:34:37.229Z,86.39
2018-09-30T23:37:42.085Z,88.32
2018-09-30T23:40:46.928Z,88.50
2018-09-30T23:43:51.054Z,87.36
2018-09-30T23:46:56.689Z,89.95
2018-09-30T23:50:00.747Z,88.62
2018-09-30T23:53:05.757Z,89.06
2018-09-30T23:56:10.348Z,86.67
2018-09-30T23:59:14.392Z,85.82
